Tropical Cyclones
[Index]
Main Index Home Page Stock Weather Photos Extreme Storms Discussion Storm News and Storm Chasing Reports Tropical Cyclones / Hurricanes / Typhoons Weather Data and Links Wild Fires / Bushfires Weather Observation Techniques Weather Picture Catalogue Tornado Pictures and Reports Stock Video Footage and DVDs for sale
Season 2003-2004 Tropical Cyclone NICKY-HELMA Track Map
Season 2003-2004 Summaries (Operational Data): [AU] [SIO] [SPAC] [SH]
<<- Previous TC | 2003-2004 Season | Next TC ->>

click for intensity scale information  Lat/long Grid: Show Hide

 Date Labels: Show Hide

Operational Tropical Cyclone Data : JTWC Advisories

Name: NICKY-HELMA
Number: 0417

08 Mar 2004 04:00 UTC to 13 Mar 2004 12:00 UTC

    date/time    lat    long     hPa   cat  kts
2004-03-08 04   13.6    90.6    1002         30          
2004-03-08 10   13.4    91.0    1002         30          
2004-03-08 16   13.0    91.3    1002         30          
2004-03-08 22   13.1    91.0    1000         30          
2004-03-09 04   13.2    90.7     995    1    40          
2004-03-09 10   13.4    90.5     985    1    45          
2004-03-09 16   14.0    90.7     985    1    45          
2004-03-09 22   14.5    90.4     985    1    45          
2004-03-10 04   14.4    90.2     975    2    60          
2004-03-10 10   15.3    90.1     975    2    55          
2004-03-10 18   16.5    89.6     975    2    60          
2004-03-11 00   17.2    88.9     975    2    60          
2004-03-11 06   17.8    88.1     972    2    60          
2004-03-11 12   18.6    87.5     972    2    60          
2004-03-11 18   19.2    87.4     974    2    60          
2004-03-12 00   19.6    87.1     976    2    60          
2004-03-12 06   19.4    85.8     980    2    55          
2004-03-12 12   19.7    85.5     985    1    45          
2004-03-12 18   20.1    85.6     990    1    40          
2004-03-13 00   21.0    84.3     994    1    35          
2004-03-13 06   22.7    84.2     998         25          
2004-03-13 12   22.2    85.1     998         20          
Winds are 10-min average.

Tropical cyclone tracks developed by Michael Bath using operational warnings and advisories and Google Maps.


[Australian Severe Weather index] [Copyright Notice] [Email Contacts] [Search This Site] [Privacy Policy]
Document: tropical_cyclone_nicky-helma.htm Updated: 28 May 2013